AirNav   Everest Fuels
 
 636 users online  

FL32 Regional Medical Center Bayonet Point Heliport
New Port Richey, Florida, USA

GOING TO NEW PORT RICHEY?


FAA INFORMATION EFFECTIVE 02 JANUARY 2020

Location

FAA Identifier: FL32
Lat/Long: 28-21-44.7300N 082-41-16.8800W
28-21.745500N 082-41.281333W
28.3624250,-82.6880222
(estimated)
Elevation: 10 ft. / 3 m (estimated)
Variation: 04W (2000)
From city: 2 miles W of NEW PORT RICHEY, FL
Time zone: UTC -5 (UTC -4 during Daylight Saving Time)
Zip code: 34667

Heliport Operations

Heliport use: Private use, MEDICAL USE.
Activation date: 07/2000
Control tower: no
ARTCC: MIAMI CENTER
FSS: SAINT PETERSBURG FLIGHT SERVICE STATION
Attendance: UNATNDD
Wind indicator: lighted
Segmented circle: no
Lights: FOR PERIMETER AND FLOOD LGTS CALL 727-869-5411.

Heliport Communications

WX ASOS at BKV (14 nm NE): 134.725 (352-799-5881)

Nearby radio navigation aids

VOR radial/distance  VOR name  Freq  Var
PIEr005/27.3ST PETERSBURG VORTAC116.4005W

Heliport Services

Runway Information

Helipad H1

Dimensions: 60 x 60 ft. / 18 x 18 m
Surface: concrete
Runway edge lights: PERI
AND FLOOD LGTS.
Latitude: 28-21.745500N
Longitude: 082-41.281333W
Elevation: 10.0 ft.
Traffic pattern: leftleft

Heliport Ownership and Management from official FAA records

Ownership: Privately-owned
Owner: RGNL MEDICAL CENTER BAYONET POINT
14000 FIVAY ROAD
HUDSON, FL 34667
Phone 727-869-5411
Manager: PRAKASH GOSINE
14000 FIVAY ROAD
HUDSON, FL 34667
Phone 727-869-5411

Additional Remarks

37 FT POWER LINE 200 FT NORTH, BLDGS IN ALL QUADRANTS.
FOR CD CTC TAMPA APCH AT 813-878-2528

Instrument Procedures

There are no published instrument procedures at FL32.

Some nearby airports with instrument procedures:

KBKV - Brooksville-Tampa Bay Regional Airport (14 nm NE)
KCLW - Clearwater Air Park (23 nm S)
KTPA - Tampa International Airport (25 nm S)
KPIE - St Pete-Clearwater International Airport (27 nm S)
KVDF - Tampa Executive Airport (28 nm SE)
 
Loc | Ops | Rwys | IFR | FBO | Links
Com | Nav | Svcs | Stats | Notes


 
Area around FL32 (Regional Medical Center Bayonet Point Heliport)
 
Road maps at: MapQuest Bing Google
 
Aerial photo
No photo
 
Sectional chart

 
Airport distance calculator
Flying to Regional Medical Center Bayonet Point Heliport? Find the distance to fly.

From to FL32

Sunrise and sunset
Times for 19-Jan-2020
 Local
(UTC-5)
 Zulu
(UTC)
Morning civil twilight06:5911:59
Sunrise07:2512:25
Sunset17:5922:59
Evening civil twilight18:2423:24

Current date and time
Zulu (UTC)  19-Jan-2020 10:38:34
Local (UTC-5)  19-Jan-2020 05:38:34
 
METAR
KBKV 
14nm NE 
190953Z AUTO 17006KT 10SM SCT080 17/14 A3013 RMK AO2 SLP202 T01720144
KCLW 
23nm S 
191015Z AUTO 15004KT 10SM CLR 18/15 A3012 RMK AO2
KTPA 
25nm S 
190953Z 15004KT 10SM FEW040 SCT095 BKN300 19/14 A3013 RMK AO2 SLP203 T01890144 $
KPIE 
27nm S 
190953Z AUTO 16004KT 10SM CLR 18/16 A3012 RMK AO2 SLP200 T01830161
KVDF 
27nm SE 
191015Z AUTO 00000KT 10SM CLR 15/15 A3014 RMK AO2
TAF
KTPA 
25nm S 
190520Z 1906/2012 16006KT P6SM FEW090 BKN250 FM191500 20008KT P6SM VCSH FEW015 BKN030 BKN100 FM192100 29009KT P6SM VCSH BKN010 OVC030 FM200300 35011KT P6SM SCT010 BKN035
KPIE 
27nm S 
190520Z 1906/2006 15006KT P6SM FEW090 BKN250 FM191500 21011KT P6SM VCSH FEW015 BKN030 BKN100 FM192100 30010KT P6SM VCSH BKN010 OVC030 FM200300 34011KT P6SM SCT010 BKN035
NOTAMs
Click for the latest NOTAMs
NOTAMs are issued by the DoD/FAA and will open in a separate window not controlled by AirNav.

 

 
 

Would you like to see your business listed on this page?

 If your business provides an interesting product or service to pilots, flight crews, aircraft, or users of the Regional Medical Center Bayonet Point Heliport, you should consider listing it here.  To start the listing process, click on the button below
 
Add a business
 

Other Pages about Regional Medical Center Bayonet Point Heliport

Update a link
 
Copyright © AirNav, LLC. All rights reserved. Privacy Policy  Contact